Time;durP1;ratioP1;P1;durP2;ratioP2;P2;SDS_P1;SDS_P2;PMS_P1;PMS_P2;Temp;Humidity;BMP_temperature;BMP_pressure;BME280_temperature;BME280_humidity;BME280_pressure;Samples;Min_cycle;Max_cycle;Signal;HPM_P1;HPM_P2
2023/03/25 00:00:17;;;;;;;;;;;10.10;99.90;;;;;;8408769;28;20272;-74
2023/03/25 00:04:19;;;;;;;;;;;10.10;99.90;;;;;;8393394;28;19924;-74
2023/03/25 00:08:22;;;;;;;;;;;10.10;99.90;;;;;;8403278;28;20213;-74
2023/03/25 00:12:25;;;;;;;;;;;10.10;99.90;;;;;;8390722;28;20298;-74
2023/03/25 00:16:26;;;;;;;;;;;10.00;99.90;;;;;;8376495;28;19939;-74
2023/03/25 00:20:28;;;;;;;;;;;10.00;99.90;;;;;;8393590;28;19983;-74
2023/03/25 00:24:30;;;;;;;;;;;10.00;99.90;;;;;;8386311;28;20390;-74
2023/03/25 00:28:33;;;;;;;;;;;10.00;99.90;;;;;;8372055;28;19925;-74
2023/03/25 00:32:35;;;;;;;;;;;10.00;99.90;;;;;;8394722;28;20251;-74
2023/03/25 00:36:37;;;;;;;;;;;10.10;99.90;;;;;;8386657;28;19928;-74
2023/03/25 00:40:38;;;;;;;;;;;10.00;99.90;;;;;;8367822;28;20010;-74
2023/03/25 00:44:40;;;;;;;;;;;10.00;99.90;;;;;;8406869;28;19931;-74
2023/03/25 00:48:42;;;;;;;;;;;10.00;99.90;;;;;;8399399;28;19930;-74
2023/03/25 00:52:44;;;;;;;;;;;9.90;99.90;;;;;;8390185;28;19974;-74
2023/03/25 00:56:45;;;;;;;;;;;9.90;99.90;;;;;;8384692;28;20756;-74
2023/03/25 01:00:48;;;;;;;;;;;9.90;99.90;;;;;;8382585;28;20699;-74
2023/03/25 01:04:50;;;;;;;;;;;9.90;99.90;;;;;;8400386;28;22077;-74
2023/03/25 01:08:51;;;;;;;;;;;9.90;99.90;;;;;;8403501;28;20027;-74
2023/03/25 01:12:53;;;;;;;;;;;10.00;99.90;;;;;;8374365;28;20383;-73
2023/03/25 01:16:55;;;;;;;;;;;10.00;99.90;;;;;;8371439;28;19928;-74
2023/03/25 01:20:56;;;;;;;;;;;10.00;99.90;;;;;;8393501;28;19965;-74
2023/03/25 01:24:58;;;;;;;;;;;10.00;99.90;;;;;;8396171;28;19983;-74
2023/03/25 01:28:59;;;;;;;;;;;10.00;99.90;;;;;;8394927;28;19925;-74
2023/03/25 01:33:01;;;;;;;;;;;10.00;99.90;;;;;;8384349;28;20019;-74
2023/03/25 01:37:03;;;;;;;;;;;9.90;99.90;;;;;;8401688;28;20379;-74
2023/03/25 01:41:05;;;;;;;;;;;9.90;99.90;;;;;;8391659;28;19924;-74
2023/03/25 01:45:21;;;;;;;;;;;9.90;99.90;;;;;;8378998;28;19924;-74
2023/03/25 01:49:28;;;;;;;;;;;9.80;99.90;;;;;;8392503;28;20107;-74
2023/03/25 01:58:34;;;;;;;;;;;9.40;99.90;;;;;;8398780;28;20367;-74
2023/03/25 02:02:39;;;;;;;;;;;9.30;99.90;;;;;;8368315;28;22225;-74
2023/03/25 02:06:45;;;;;;;;;;;9.30;99.90;;;;;;8393100;28;19933;-74
2023/03/25 02:10:47;;;;;;;;;;;9.20;99.90;;;;;;8388117;28;20408;-74
2023/03/25 02:14:48;;;;;;;;;;;9.00;99.90;;;;;;8396291;28;20307;-74
2023/03/25 02:18:50;;;;;;;;;;;8.90;99.90;;;;;;8397520;28;19939;-74
2023/03/25 02:23:06;;;;;;;;;;;8.80;99.90;;;;;;8392475;28;19939;-74
2023/03/25 02:27:13;;;;;;;;;;;8.70;99.90;;;;;;8409030;28;19964;-75
2023/03/25 02:31:14;;;;;;;;;;;8.70;99.90;;;;;;8387985;28;19929;-74
2023/03/25 02:35:39;;;;;;;;;;;8.70;99.90;;;;;;8402240;28;20014;-74
2023/03/25 02:39:53;;;;;;;;;;;8.70;99.90;;;;;;8390359;28;19925;-74
2023/03/25 02:44:09;;;;;;;;;;;8.80;99.90;;;;;;8372288;28;19929;-75
2023/03/25 02:48:15;;;;;;;;;;;8.80;99.90;;;;;;8396056;28;20389;-74
2023/03/25 02:52:22;;;;;;;;;;;8.90;99.90;;;;;;8398044;28;20392;-74
2023/03/25 02:56:25;;;;;;;;;;;8.90;99.90;;;;;;8380493;28;19924;-74
2023/03/25 03:00:27;;;;;;;;;;;8.90;99.90;;;;;;8388391;28;19934;-74
2023/03/25 03:04:29;;;;;;;;;;;9.00;99.90;;;;;;8410538;28;19924;-74
2023/03/25 03:08:34;;;;;;;;;;;9.00;99.90;;;;;;8402513;28;19931;-74
2023/03/25 03:12:38;;;;;;;;;;;9.00;99.90;;;;;;8384843;28;20239;-74
2023/03/25 03:16:47;;;;;;;;;;;9.10;99.90;;;;;;8394665;28;19931;-74
2023/03/25 03:20:54;;;;;;;;;;;9.10;99.90;;;;;;8414286;28;19925;-74
2023/03/25 03:30:03;;;;;;;;;;;9.20;99.90;;;;;;8378014;28;19922;-74
2023/03/25 03:34:13;;;;;;;;;;;9.10;99.90;;;;;;8399393;28;19929;-74
2023/03/25 03:38:16;;;;;;;;;;;9.10;99.90;;;;;;8383472;28;19946;-74
2023/03/25 03:42:31;;;;;;;;;;;9.10;99.90;;;;;;8398272;28;19932;-74
2023/03/25 03:46:35;;;;;;;;;;;9.20;99.90;;;;;;8408648;28;19931;-74
2023/03/25 03:50:42;;;;;;;;;;;9.20;99.90;;;;;;8400529;28;20052;-74
2023/03/25 03:54:47;;;;;;;;;;;9.20;99.90;;;;;;8390254;28;19925;-74
2023/03/25 03:58:52;;;;;;;;;;;9.20;99.90;;;;;;8401014;28;19966;-74
2023/03/25 04:03:14;;;;;;;;;;;9.10;99.90;;;;;;8408584;28;19930;-74
2023/03/25 04:07:18;;;;;;;;;;;9.00;99.90;;;;;;8397943;28;20014;-74
2023/03/25 04:11:22;;;;;;;;;;;9.00;99.90;;;;;;8406838;28;20006;-74
2023/03/25 04:15:24;;;;;;;;;;;9.00;99.90;;;;;;8389399;28;19932;-74
2023/03/25 04:19:26;;;;;;;;;;;8.90;99.90;;;;;;8396537;28;19931;-74
2023/03/25 04:23:30;;;;;;;;;;;8.90;99.90;;;;;;8388177;28;20354;-74
2023/03/25 04:27:36;;;;;;;;;;;8.90;99.90;;;;;;8388495;28;19924;-74
2023/03/25 04:31:44;;;;;;;;;;;8.80;99.90;;;;;;8410229;28;19932;-74
2023/03/25 04:35:49;;;;;;;;;;;8.70;99.90;;;;;;8390393;28;20296;-74
2023/03/25 04:39:52;;;;;;;;;;;8.70;99.90;;;;;;8385702;28;19942;-74
2023/03/25 04:43:54;;;;;;;;;;;8.60;99.90;;;;;;8373186;28;19963;-74
2023/03/25 04:47:56;;;;;;;;;;;8.60;99.90;;;;;;8400934;28;19960;-74
2023/03/25 04:52:01;;;;;;;;;;;8.60;99.90;;;;;;8401289;28;19979;-74
2023/03/25 04:56:03;;;;;;;;;;;8.60;99.90;;;;;;8391873;28;19963;-74
2023/03/25 05:00:07;;;;;;;;;;;8.60;99.90;;;;;;8382874;28;20332;-74
2023/03/25 05:04:11;;;;;;;;;;;8.60;99.90;;;;;;8350548;28;20603;-74
2023/03/25 05:08:13;;;;;;;;;;;8.60;99.90;;;;;;8371528;28;19967;-74
2023/03/25 05:12:16;;;;;;;;;;;8.50;99.90;;;;;;8383744;28;19932;-74
2023/03/25 05:16:17;;;;;;;;;;;8.50;99.90;;;;;;8378557;28;20020;-74
2023/03/25 05:20:21;;;;;;;;;;;8.40;99.90;;;;;;8379902;28;19939;-74
2023/03/25 05:24:22;;;;;;;;;;;8.40;99.90;;;;;;8402587;28;20388;-74
2023/03/25 05:28:24;;;;;;;;;;;8.30;99.90;;;;;;8404996;28;19932;-74
2023/03/25 05:32:34;;;;;;;;;;;8.30;99.90;;;;;;8384344;28;20117;-74
2023/03/25 05:36:36;;;;;;;;;;;8.30;99.90;;;;;;8396671;28;19949;-74
2023/03/25 05:40:38;;;;;;;;;;;8.30;99.90;;;;;;8387629;28;19974;-74
2023/03/25 05:44:49;;;;;;;;;;;8.50;99.90;;;;;;8404863;28;19959;-74
2023/03/25 05:48:51;;;;;;;;;;;8.50;99.90;;;;;;8373148;28;19970;-74
2023/03/25 05:52:54;;;;;;;;;;;8.60;99.90;;;;;;8393845;28;20287;-74
2023/03/25 05:56:55;;;;;;;;;;;8.70;99.90;;;;;;8379554;28;19932;-74
2023/03/25 06:00:59;;;;;;;;;;;8.70;99.90;;;;;;8390701;28;20390;-74
2023/03/25 06:05:00;;;;;;;;;;;8.80;99.90;;;;;;8372112;28;19924;-75
2023/03/25 06:09:03;;;;;;;;;;;8.80;99.90;;;;;;8382211;28;19932;-74
2023/03/25 06:13:04;;;;;;;;;;;8.80;99.90;;;;;;8371087;28;19936;-74
2023/03/25 06:17:06;;;;;;;;;;;8.90;99.90;;;;;;8393461;28;19924;-73
2023/03/25 06:21:07;;;;;;;;;;;8.90;99.90;;;;;;8360667;28;19924;-74
2023/03/25 06:25:10;;;;;;;;;;;8.90;99.90;;;;;;8401217;28;19929;-74
2023/03/25 06:29:12;;;;;;;;;;;8.90;99.90;;;;;;8386795;28;20011;-74
2023/03/25 06:33:15;;;;;;;;;;;8.70;99.90;;;;;;8375537;28;19972;-74
2023/03/25 06:37:16;;;;;;;;;;;8.70;99.90;;;;;;8394205;28;19929;-74
2023/03/25 06:41:23;;;;;;;;;;;8.70;99.90;;;;;;8382313;28;20362;-74
2023/03/25 06:45:26;;;;;;;;;;;8.70;99.90;;;;;;8376183;28;19932;-74
2023/03/25 06:49:27;;;;;;;;;;;8.60;99.90;;;;;;8391480;28;19931;-74
2023/03/25 06:53:29;;;;;;;;;;;8.50;99.90;;;;;;8400690;28;20027;-74
2023/03/25 06:57:31;;;;;;;;;;;8.50;99.90;;;;;;8377741;28;19931;-74
2023/03/25 07:01:32;;;;;;;;;;;8.40;99.90;;;;;;8374087;28;20011;-74
2023/03/25 07:05:34;;;;;;;;;;;8.50;99.90;;;;;;8363888;28;20420;-74
2023/03/25 07:09:35;;;;;;;;;;;8.40;99.90;;;;;;8396724;28;19954;-74
2023/03/25 07:13:37;;;;;;;;;;;8.40;99.90;;;;;;8385772;28;19924;-74
2023/03/25 07:17:39;;;;;;;;;;;8.50;99.90;;;;;;8374519;28;20049;-73
2023/03/25 07:21:41;;;;;;;;;;;8.50;99.90;;;;;;8362502;28;20293;-73
2023/03/25 07:25:43;;;;;;;;;;;8.50;99.90;;;;;;8389089;28;19935;-74
2023/03/25 07:29:45;;;;;;;;;;;8.40;99.90;;;;;;8379753;28;20039;-74
2023/03/25 07:33:47;;;;;;;;;;;8.40;99.90;;;;;;8363063;28;20055;-73
2023/03/25 07:37:48;;;;;;;;;;;8.40;99.90;;;;;;8392803;28;19932;-73
2023/03/25 07:41:50;;;;;;;;;;;8.50;99.90;;;;;;8378708;28;19971;-73
2023/03/25 07:45:52;;;;;;;;;;;8.50;99.90;;;;;;8356730;28;20318;-74
2023/03/25 07:49:54;;;;;;;;;;;8.60;99.90;;;;;;8397947;28;20363;-73
2023/03/25 07:53:55;;;;;;;;;;;8.70;99.90;;;;;;8388781;28;19939;-73
2023/03/25 07:58:05;;;;;;;;;;;8.70;99.90;;;;;;8393514;28;19937;-73
2023/03/25 08:02:08;;;;;;;;;;;8.70;99.90;;;;;;8401647;28;19928;-74
2023/03/25 08:06:10;;;;;;;;;;;8.80;99.90;;;;;;8409431;28;20368;-73
2023/03/25 08:10:14;;;;;;;;;;;8.80;99.90;;;;;;8399840;28;19924;-74
2023/03/25 08:14:15;;;;;;;;;;;8.80;99.90;;;;;;8380531;28;19963;-73
2023/03/25 08:18:17;;;;;;;;;;;8.90;99.90;;;;;;8380725;28;20292;-73
2023/03/25 08:22:19;;;;;;;;;;;9.00;99.90;;;;;;8379672;28;19959;-73
2023/03/25 08:26:20;;;;;;;;;;;9.00;99.90;;;;;;8406421;28;19986;-73
2023/03/25 08:30:22;;;;;;;;;;;9.10;99.90;;;;;;8408326;28;19935;-73
2023/03/25 08:34:24;;;;;;;;;;;9.10;99.90;;;;;;8392325;28;19967;-73
2023/03/25 08:38:31;;;;;;;;;;;9.20;99.90;;;;;;8382732;28;19939;-73
2023/03/25 08:42:35;;;;;;;;;;;9.10;99.90;;;;;;8377957;28;19925;-73
2023/03/25 08:46:37;;;;;;;;;;;9.10;99.90;;;;;;8378984;28;20387;-73
2023/03/25 08:50:39;;;;;;;;;;;9.10;99.90;;;;;;8365209;28;19924;-73
2023/03/25 08:54:41;;;;;;;;;;;8.90;99.90;;;;;;8390791;28;20649;-73
2023/03/25 08:58:42;;;;;;;;;;;8.90;99.90;;;;;;8370103;28;19924;-73
2023/03/25 09:02:44;;;;;;;;;;;8.80;99.90;;;;;;8383688;28;19931;-72
2023/03/25 09:06:48;;;;;;;;;;;8.90;99.90;;;;;;8390280;28;19925;-72
2023/03/25 09:11:10;;;;;;;;;;;9.10;99.90;;;;;;8381331;28;19929;-72
2023/03/25 09:15:12;;;;;;;;;;;9.10;99.90;;;;;;8393410;28;20387;-72
2023/03/25 09:19:14;;;;;;;;;;;9.20;99.90;;;;;;8393658;28;19928;-72
2023/03/25 09:33:29;;;;;;;;;;;8.90;99.90;;;;;;8377038;28;19961;-71
2023/03/25 09:37:30;;;;;;;;;;;8.80;99.90;;;;;;8380680;28;19990;-71
2023/03/25 09:41:40;;;;;;;;;;;8.90;99.90;;;;;;8372545;28;19929;-71
2023/03/25 09:45:43;;;;;;;;;;;9.00;99.90;;;;;;8366992;28;20329;-72
2023/03/25 09:49:52;;;;;;;;;;;9.00;99.90;;;;;;8389324;28;19924;-71
2023/03/25 09:54:13;;;;;;;;;;;9.00;99.90;;;;;;8393552;28;19924;-72
2023/03/25 09:58:21;;;;;;;;;;;9.00;99.90;;;;;;8400895;28;19939;-72
2023/03/25 10:02:26;;;;;;;;;;;9.10;99.90;;;;;;8389661;28;19925;-72
2023/03/25 10:06:29;;;;;;;;;;;9.20;99.90;;;;;;8393178;28;19928;-72
2023/03/25 10:10:35;;;;;;;;;;;9.30;99.90;;;;;;8400421;28;20027;-72
2023/03/25 10:14:48;;;;;;;;;;;9.30;99.90;;;;;;8392346;28;19932;-72
2023/03/25 10:19:10;;;;;;;;;;;9.30;99.90;;;;;;8401037;28;19975;-72
2023/03/25 10:23:28;;;;;;;;;;;9.50;99.90;;;;;;8399784;28;19924;-72
2023/03/25 10:27:32;;;;;;;;;;;9.60;99.90;;;;;;8402478;28;19936;-72
2023/03/25 10:31:37;;;;;;;;;;;9.60;99.90;;;;;;8386917;28;19928;-71
2023/03/25 10:35:41;;;;;;;;;;;9.70;99.90;;;;;;8393897;28;20595;-72
2023/03/25 10:39:46;;;;;;;;;;;9.80;99.90;;;;;;8374041;28;20023;-72
2023/03/25 10:43:49;;;;;;;;;;;9.90;99.90;;;;;;8379989;28;19932;-72
2023/03/25 10:47:53;;;;;;;;;;;10.00;99.90;;;;;;8395333;28;19924;-72
2023/03/25 10:51:58;;;;;;;;;;;10.10;99.90;;;;;;8397542;28;19973;-72
2023/03/25 10:56:13;;;;;;;;;;;10.10;99.90;;;;;;8404612;28;20036;-72
2023/03/25 11:00:17;;;;;;;;;;;10.00;99.90;;;;;;8372688;28;22417;-72
2023/03/25 11:04:20;;;;;;;;;;;9.90;99.90;;;;;;8382078;28;19925;-72
2023/03/25 11:08:22;;;;;;;;;;;9.70;99.90;;;;;;8404198;28;19929;-72
2023/03/25 11:12:25;;;;;;;;;;;9.70;99.90;;;;;;8386301;28;19927;-71
2023/03/25 11:16:54;;;;;;;;;;;9.70;99.90;;;;;;8363401;28;19929;-72
2023/03/25 11:20:59;;;;;;;;;;;9.70;99.90;;;;;;8371096;28;19979;-72
2023/03/25 11:25:12;;;;;;;;;;;9.80;99.90;;;;;;8393608;28;19983;-72
2023/03/25 11:29:17;;;;;;;;;;;10.00;99.90;;;;;;8368077;28;19974;-72
2023/03/25 11:33:18;;;;;;;;;;;10.20;99.90;;;;;;8366964;28;19933;-72
2023/03/25 11:37:21;;;;;;;;;;;10.60;99.90;;;;;;8381088;28;20299;-72
2023/03/25 11:41:23;;;;;;;;;;;10.80;99.90;;;;;;8374958;28;20331;-72
2023/03/25 11:45:27;;;;;;;;;;;10.80;99.90;;;;;;8361855;28;19935;-72
2023/03/25 11:49:34;;;;;;;;;;;10.80;99.90;;;;;;8356647;28;19929;-72
2023/03/25 11:53:35;;;;;;;;;;;10.70;99.90;;;;;;8356100;28;19972;-72
2023/03/25 11:57:38;;;;;;;;;;;10.40;99.90;;;;;;8355333;28;19932;-72
2023/03/25 12:01:41;;;;;;;;;;;10.30;99.90;;;;;;8370480;28;19939;-72
2023/03/25 12:05:55;;;;;;;;;;;10.30;99.90;;;;;;8364571;28;20023;-72
2023/03/25 12:09:57;;;;;;;;;;;10.20;99.90;;;;;;8362650;28;19928;-72
2023/03/25 12:13:59;;;;;;;;;;;10.20;99.90;;;;;;8363913;28;19925;-72
2023/03/25 12:18:08;;;;;;;;;;;10.10;99.90;;;;;;8368315;28;19963;-72
2023/03/25 12:22:15;;;;;;;;;;;10.00;99.90;;;;;;8349726;28;19933;-72
2023/03/25 12:26:25;;;;;;;;;;;10.40;99.90;;;;;;8364503;28;19931;-72
2023/03/25 12:30:35;;;;;;;;;;;10.70;99.90;;;;;;8354997;28;19981;-72
2023/03/25 12:34:43;;;;;;;;;;;10.80;99.90;;;;;;8346823;28;19936;-73
2023/03/25 12:38:52;;;;;;;;;;;10.80;99.90;;;;;;8363363;28;20012;-72
2023/03/25 12:43:04;;;;;;;;;;;11.10;99.90;;;;;;8354846;28;20008;-72
2023/03/25 12:47:15;;;;;;;;;;;11.40;99.90;;;;;;8350648;28;19931;-72
2023/03/25 12:51:35;;;;;;;;;;;11.60;99.90;;;;;;8359338;28;19971;-72
2023/03/25 12:55:43;;;;;;;;;;;11.60;99.90;;;;;;8360011;28;19929;-72
2023/03/25 12:59:52;;;;;;;;;;;11.70;99.90;;;;;;8351233;28;20428;-73
2023/03/25 13:04:03;;;;;;;;;;;12.10;99.90;;;;;;8362792;28;19976;-72
2023/03/25 13:08:09;;;;;;;;;;;12.30;99.90;;;;;;8369066;28;19931;-72
2023/03/25 13:12:13;;;;;;;;;;;12.30;99.90;;;;;;8346231;28;20368;-72
2023/03/25 13:16:21;;;;;;;;;;;12.50;99.90;;;;;;8353586;28;19974;-72
2023/03/25 13:20:24;;;;;;;;;;;12.50;99.90;;;;;;8349353;28;20244;-72
2023/03/25 13:24:36;;;;;;;;;;;12.40;99.90;;;;;;8349803;28;20220;-73
2023/03/25 13:28:42;;;;;;;;;;;12.30;99.90;;;;;;8353443;28;19976;-72
2023/03/25 13:32:49;;;;;;;;;;;12.20;99.90;;;;;;8353345;28;19936;-72
2023/03/25 13:37:02;;;;;;;;;;;12.10;99.90;;;;;;8353366;28;20625;-73
2023/03/25 13:41:22;;;;;;;;;;;12.40;99.90;;;;;;8360540;28;20008;-73
2023/03/25 13:45:26;;;;;;;;;;;12.80;99.90;;;;;;8364295;28;19928;-73
2023/03/25 13:49:42;;;;;;;;;;;13.00;99.90;;;;;;8357055;28;19936;-73
2023/03/25 13:53:45;;;;;;;;;;;13.20;99.90;;;;;;8353625;28;19936;-73
2023/03/25 13:57:50;;;;;;;;;;;13.30;99.90;;;;;;8352409;28;19972;-73
2023/03/25 14:02:00;;;;;;;;;;;13.10;99.90;;;;;;8365715;28;19925;-73
2023/03/25 14:06:13;;;;;;;;;;;12.80;99.90;;;;;;8337930;28;20432;-72
2023/03/25 14:10:23;;;;;;;;;;;12.50;99.90;;;;;;8351963;28;19982;-72
2023/03/25 14:14:25;;;;;;;;;;;11.90;99.90;;;;;;8336561;28;20393;-72
2023/03/25 14:18:30;;;;;;;;;;;10.90;99.90;;;;;;8352286;28;19982;-72
2023/03/25 14:22:38;;;;;;;;;;;10.30;99.90;;;;;;8354725;28;20531;-72
2023/03/25 14:26:59;;;;;;;;;;;10.40;99.90;;;;;;8356161;28;19933;-72
2023/03/25 14:31:07;;;;;;;;;;;11.30;99.90;;;;;;8354995;28;19933;-72
2023/03/25 14:35:27;;;;;;;;;;;11.80;99.90;;;;;;8350793;28;19932;-72
2023/03/25 14:39:29;;;;;;;;;;;12.70;99.90;;;;;;8351115;28;19925;-72
2023/03/25 14:43:37;;;;;;;;;;;13.50;99.90;;;;;;8356022;28;19939;-72
2023/03/25 14:47:49;;;;;;;;;;;13.40;99.90;;;;;;8375023;28;20384;-72
2023/03/25 14:51:55;;;;;;;;;;;13.40;99.90;;;;;;8358169;28;19933;-72
2023/03/25 14:55:59;;;;;;;;;;;13.50;99.90;;;;;;8376062;28;20125;-72
2023/03/25 15:00:08;;;;;;;;;;;13.60;99.90;;;;;;8357574;28;19925;-73
2023/03/25 15:04:29;;;;;;;;;;;13.60;99.90;;;;;;8341081;28;19929;-72
2023/03/25 15:08:38;;;;;;;;;;;13.50;99.90;;;;;;8358018;28;19932;-72
2023/03/25 15:12:40;;;;;;;;;;;13.10;99.90;;;;;;8356974;28;19939;-72
2023/03/25 15:16:44;;;;;;;;;;;12.80;99.90;;;;;;8358528;28;19932;-73
2023/03/25 15:20:46;;;;;;;;;;;12.60;99.90;;;;;;8368982;28;20015;-72
2023/03/25 15:24:54;;;;;;;;;;;12.60;99.90;;;;;;8361749;28;19928;-73
2023/03/25 15:28:56;;;;;;;;;;;12.50;99.90;;;;;;8361011;28;19928;-72
2023/03/25 15:33:07;;;;;;;;;;;12.50;99.90;;;;;;8356620;28;20292;-72
2023/03/25 15:37:18;;;;;;;;;;;12.60;99.90;;;;;;8358686;28;19929;-73
2023/03/25 15:41:40;;;;;;;;;;;12.60;99.90;;;;;;8358313;28;19936;-72
2023/03/25 15:45:42;;;;;;;;;;;12.70;99.90;;;;;;8353429;28;19940;-72
2023/03/25 15:49:43;;;;;;;;;;;12.60;99.90;;;;;;8365285;28;19928;-73
2023/03/25 15:54:04;;;;;;;;;;;12.40;99.90;;;;;;8368806;28;19932;-73
2023/03/25 15:58:11;;;;;;;;;;;12.20;99.90;;;;;;8362101;28;19932;-72
2023/03/25 16:02:34;;;;;;;;;;;12.10;99.90;;;;;;8360025;28;20053;-72
2023/03/25 16:06:41;;;;;;;;;;;12.10;99.90;;;;;;8363346;28;19925;-72
2023/03/25 16:10:45;;;;;;;;;;;12.00;99.90;;;;;;8357807;28;19939;-72
2023/03/25 16:14:47;;;;;;;;;;;12.00;99.90;;;;;;8359415;28;19936;-72
2023/03/25 16:18:48;;;;;;;;;;;12.00;99.90;;;;;;8357523;28;19925;-73
2023/03/25 16:22:54;;;;;;;;;;;12.00;99.90;;;;;;8354504;28;19925;-72
2023/03/25 16:26:56;;;;;;;;;;;12.00;99.90;;;;;;8354575;28;20375;-72
2023/03/25 16:30:58;;;;;;;;;;;12.00;99.90;;;;;;8353555;28;19935;-72
2023/03/25 16:34:59;;;;;;;;;;;12.10;99.90;;;;;;8349015;28;19933;-72
2023/03/25 16:39:01;;;;;;;;;;;12.20;99.90;;;;;;8351869;28;20067;-73
2023/03/25 16:43:18;;;;;;;;;;;12.20;99.90;;;;;;8354589;28;19955;-72
2023/03/25 16:47:20;;;;;;;;;;;12.20;99.90;;;;;;8353378;28;19942;-72
2023/03/25 16:51:24;;;;;;;;;;;12.20;99.90;;;;;;8353833;28;19924;-72
2023/03/25 16:55:28;;;;;;;;;;;12.20;99.90;;;;;;8367984;28;19983;-73
2023/03/25 16:59:35;;;;;;;;;;;12.10;99.90;;;;;;8350214;28;20396;-72
2023/03/25 17:03:44;;;;;;;;;;;11.90;99.90;;;;;;8355563;28;21361;-72
2023/03/25 17:07:48;;;;;;;;;;;11.80;99.90;;;;;;8355143;28;20567;-72
2023/03/25 17:11:55;;;;;;;;;;;11.50;99.90;;;;;;8349727;28;19925;-71
2023/03/25 17:15:57;;;;;;;;;;;11.10;99.90;;;;;;8350462;28;20214;-72
2023/03/25 17:20:00;;;;;;;;;;;10.70;99.90;;;;;;8353394;28;19924;-71
2023/03/25 17:24:21;;;;;;;;;;;10.30;99.90;;;;;;8356470;28;19935;-72
2023/03/25 17:28:23;;;;;;;;;;;10.10;99.90;;;;;;8355156;28;19974;-72
2023/03/25 17:32:25;;;;;;;;;;;10.00;99.90;;;;;;8371868;28;19924;-72
2023/03/25 17:36:29;;;;;;;;;;;9.90;99.90;;;;;;8370843;28;19998;-72
2023/03/25 17:40:31;;;;;;;;;;;9.90;99.90;;;;;;8366869;28;19929;-72
2023/03/25 17:44:40;;;;;;;;;;;9.80;99.90;;;;;;8359016;28;19929;-72
2023/03/25 17:48:41;;;;;;;;;;;9.80;99.90;;;;;;8352914;28;19982;-72
2023/03/25 17:52:43;;;;;;;;;;;9.90;99.90;;;;;;8354765;28;19932;-72
2023/03/25 17:56:46;;;;;;;;;;;9.90;99.90;;;;;;8356365;28;19925;-72
2023/03/25 18:00:48;;;;;;;;;;;9.80;99.90;;;;;;8352852;28;19968;-72
2023/03/25 18:04:50;;;;;;;;;;;9.80;99.90;;;;;;8350973;28;19925;-72
2023/03/25 18:08:52;;;;;;;;;;;9.70;99.90;;;;;;8367810;28;19987;-72
2023/03/25 18:12:55;;;;;;;;;;;9.70;99.90;;;;;;8354046;28;19924;-72
2023/03/25 18:16:56;;;;;;;;;;;9.70;99.90;;;;;;8358974;28;20375;-72
2023/03/25 18:21:02;;;;;;;;;;;9.70;99.90;;;;;;8347548;28;19924;-72
2023/03/25 18:25:04;;;;;;;;;;;9.60;99.90;;;;;;8360889;28;19948;-72
2023/03/25 18:29:36;;;;;;;;;;;9.60;99.90;;;;;;8365618;28;19947;-72
2023/03/25 18:33:38;;;;;;;;;;;9.50;99.90;;;;;;8346993;28;19925;-72
2023/03/25 18:37:40;;;;;;;;;;;9.40;99.90;;;;;;8363070;28;20015;-72
2023/03/25 18:41:42;;;;;;;;;;;9.20;99.90;;;;;;8363237;28;19933;-72
2023/03/25 18:45:46;;;;;;;;;;;9.10;99.90;;;;;;8356005;28;19925;-72
2023/03/25 18:49:47;;;;;;;;;;;9.00;99.90;;;;;;8362161;28;20323;-72
2023/03/25 18:53:49;;;;;;;;;;;8.90;99.90;;;;;;8366910;28;19935;-72
2023/03/25 18:57:51;;;;;;;;;;;8.80;99.90;;;;;;8376866;28;20011;-72
2023/03/25 19:01:53;;;;;;;;;;;8.80;99.90;;;;;;8357562;28;19935;-72
2023/03/25 19:05:55;;;;;;;;;;;8.70;99.90;;;;;;8352506;28;19952;-72
2023/03/25 19:09:57;;;;;;;;;;;8.70;99.90;;;;;;8361003;28;19929;-72
2023/03/25 19:13:58;;;;;;;;;;;8.70;99.90;;;;;;8362395;28;19929;-72
2023/03/25 19:18:00;;;;;;;;;;;8.60;99.90;;;;;;8355305;28;19932;-72
2023/03/25 19:22:02;;;;;;;;;;;8.60;99.90;;;;;;8353228;28;19933;-72
2023/03/25 19:26:04;;;;;;;;;;;8.60;99.90;;;;;;8358200;28;20414;-72
2023/03/25 19:30:06;;;;;;;;;;;8.60;99.90;;;;;;8357081;28;19939;-72
2023/03/25 19:34:08;;;;;;;;;;;8.70;99.90;;;;;;8360018;28;20385;-72
2023/03/25 19:38:11;;;;;;;;;;;8.70;99.90;;;;;;8356089;28;20407;-72
2023/03/25 19:42:13;;;;;;;;;;;8.70;99.90;;;;;;8362167;28;19930;-72
2023/03/25 19:46:14;;;;;;;;;;;8.70;99.90;;;;;;8358551;28;19932;-72
2023/03/25 19:50:30;;;;;;;;;;;8.80;99.90;;;;;;8358628;28;19933;-72
2023/03/25 19:54:32;;;;;;;;;;;8.90;99.90;;;;;;8358653;28;19960;-72
2023/03/25 19:58:33;;;;;;;;;;;8.90;99.90;;;;;;8359525;28;19950;-72
2023/03/25 20:02:35;;;;;;;;;;;8.90;99.90;;;;;;8359541;28;19931;-72
2023/03/25 20:06:38;;;;;;;;;;;9.00;99.90;;;;;;8358674;28;19925;-72
2023/03/25 20:10:40;;;;;;;;;;;9.00;99.90;;;;;;8342433;28;20023;-72
2023/03/25 20:14:41;;;;;;;;;;;8.90;99.90;;;;;;8343401;28;19924;-72
2023/03/25 20:18:44;;;;;;;;;;;9.00;99.90;;;;;;8364600;28;19990;-72
2023/03/25 20:22:46;;;;;;;;;;;9.00;99.90;;;;;;8356310;28;20356;-72
2023/03/25 20:26:49;;;;;;;;;;;8.90;99.90;;;;;;8365712;28;19958;-72
2023/03/25 20:30:51;;;;;;;;;;;9.00;99.90;;;;;;8374483;28;19936;-72
2023/03/25 20:34:52;;;;;;;;;;;8.90;99.90;;;;;;8358917;28;20024;-72
2023/03/25 20:38:54;;;;;;;;;;;8.90;99.90;;;;;;8375411;28;19935;-72
2023/03/25 20:42:58;;;;;;;;;;;8.80;99.90;;;;;;8360510;28;19924;-72
2023/03/25 20:47:00;;;;;;;;;;;8.80;99.90;;;;;;8358118;28;19925;-72
2023/03/25 20:51:04;;;;;;;;;;;8.70;99.90;;;;;;8357418;28;19960;-72
2023/03/25 20:55:06;;;;;;;;;;;8.70;99.90;;;;;;8356431;28;20312;-73
2023/03/25 20:59:11;;;;;;;;;;;8.70;99.90;;;;;;8372690;28;20411;-72
2023/03/25 21:03:14;;;;;;;;;;;8.60;99.90;;;;;;8355825;28;20303;-72
2023/03/25 21:07:18;;;;;;;;;;;8.60;99.90;;;;;;8346519;28;19960;-72
2023/03/25 21:11:20;;;;;;;;;;;8.60;99.90;;;;;;8340508;28;19990;-72
2023/03/25 21:15:21;;;;;;;;;;;8.60;99.90;;;;;;8338219;28;19928;-72
2023/03/25 21:19:23;;;;;;;;;;;8.60;99.90;;;;;;8353551;28;20357;-72
2023/03/25 21:23:29;;;;;;;;;;;8.60;99.90;;;;;;8360920;28;20344;-72
2023/03/25 21:27:31;;;;;;;;;;;8.50;99.90;;;;;;8359393;28;20258;-72
2023/03/25 21:31:38;;;;;;;;;;;8.50;99.90;;;;;;8359015;28;20086;-72
2023/03/25 21:35:44;;;;;;;;;;;8.50;99.90;;;;;;8359666;28;19928;-72
2023/03/25 21:39:56;;;;;;;;;;;8.40;99.90;;;;;;8359945;28;19932;-72
2023/03/25 21:43:58;;;;;;;;;;;8.40;99.90;;;;;;8359955;28;20483;-73
2023/03/25 21:48:03;;;;;;;;;;;8.40;99.90;;;;;;8358743;28;19928;-72
2023/03/25 21:52:11;;;;;;;;;;;8.30;99.90;;;;;;8353864;28;20900;-72
2023/03/25 21:56:16;;;;;;;;;;;8.30;99.90;;;;;;8362170;28;19928;-72
2023/03/25 22:00:18;;;;;;;;;;;8.30;99.90;;;;;;8360366;28;20364;-72
2023/03/25 22:04:20;;;;;;;;;;;8.20;99.90;;;;;;8380684;28;19955;-72
2023/03/25 22:08:22;;;;;;;;;;;8.20;99.90;;;;;;8390568;28;19924;-72
2023/03/25 22:12:24;;;;;;;;;;;8.20;99.90;;;;;;8391661;28;20281;-72
2023/03/25 22:16:26;;;;;;;;;;;8.10;99.90;;;;;;8377608;28;19975;-72
2023/03/25 22:20:28;;;;;;;;;;;8.20;99.90;;;;;;8380607;28;20451;-72
2023/03/25 22:24:30;;;;;;;;;;;8.10;99.90;;;;;;8408037;28;19924;-73
2023/03/25 22:28:32;;;;;;;;;;;8.20;99.90;;;;;;8378601;28;20009;-72
2023/03/25 22:32:34;;;;;;;;;;;8.30;99.90;;;;;;8381061;28;19952;-72
2023/03/25 22:36:37;;;;;;;;;;;8.30;99.90;;;;;;8373348;28;20273;-72
2023/03/25 22:40:39;;;;;;;;;;;8.30;99.90;;;;;;8368103;28;19964;-72
2023/03/25 22:44:43;;;;;;;;;;;8.40;99.90;;;;;;8382602;28;19931;-72
2023/03/25 22:48:45;;;;;;;;;;;8.40;99.90;;;;;;8367764;28;19928;-72
2023/03/25 22:52:47;;;;;;;;;;;8.40;99.90;;;;;;8376221;28;19997;-72
2023/03/25 22:56:48;;;;;;;;;;;8.40;99.90;;;;;;8380627;28;20429;-73
2023/03/25 23:00:50;;;;;;;;;;;8.40;99.90;;;;;;8374283;28;19949;-73
2023/03/25 23:04:52;;;;;;;;;;;8.40;99.90;;;;;;8372811;28;19967;-72
2023/03/25 23:08:54;;;;;;;;;;;8.30;99.90;;;;;;8381142;28;20273;-72
2023/03/25 23:12:56;;;;;;;;;;;8.40;99.90;;;;;;8387442;28;19925;-73
2023/03/25 23:16:57;;;;;;;;;;;8.40;99.90;;;;;;8399293;28;20362;-72
2023/03/25 23:21:00;;;;;;;;;;;8.40;99.90;;;;;;8391354;28;19971;-72
2023/03/25 23:25:03;;;;;;;;;;;8.40;99.90;;;;;;8391760;28;19936;-72
2023/03/25 23:29:07;;;;;;;;;;;8.40;99.90;;;;;;8366211;28;19928;-72
2023/03/25 23:33:09;;;;;;;;;;;8.50;99.90;;;;;;8361282;28;19936;-72
2023/03/25 23:37:12;;;;;;;;;;;8.50;99.90;;;;;;8408921;28;19977;-72
2023/03/25 23:41:14;;;;;;;;;;;8.50;99.90;;;;;;8358584;28;19925;-72
2023/03/25 23:45:16;;;;;;;;;;;8.50;99.90;;;;;;8393731;28;20295;-72
2023/03/25 23:49:19;;;;;;;;;;;8.50;99.90;;;;;;8381816;28;20022;-72
2023/03/25 23:53:21;;;;;;;;;;;8.50;99.90;;;;;;8388105;28;19925;-72
2023/03/25 23:57:22;;;;;;;;;;;8.50;99.90;;;;;;8390589;28;19928;-72
